sensor_id;sensor_type;location;lat;lon;timestamp;P1;durP1;ratioP1;P2;durP2;ratioP2
63444;SDS011;49573;47.682;9.170;2023-05-15T00:00:39;5.90;;;4.40;;
63444;SDS011;49573;47.682;9.170;2023-05-15T00:03:26;6.72;;;4.88;;
63444;SDS011;49573;47.682;9.170;2023-05-15T00:06:12;7.65;;;5.00;;
63444;SDS011;49573;47.682;9.170;2023-05-15T00:08:58;8.00;;;4.53;;
63444;SDS011;49573;47.682;9.170;2023-05-15T00:11:45;7.60;;;5.38;;
63444;SDS011;49573;47.682;9.170;2023-05-15T00:14:32;10.48;;;5.47;;
63444;SDS011;49573;47.682;9.170;2023-05-15T00:17:18;7.13;;;5.13;;
63444;SDS011;49573;47.682;9.170;2023-05-15T00:20:05;9.48;;;5.68;;
63444;SDS011;49573;47.682;9.170;2023-05-15T00:22:54;7.30;;;5.35;;
63444;SDS011;49573;47.682;9.170;2023-05-15T00:25:40;7.88;;;5.97;;
63444;SDS011;49573;47.682;9.170;2023-05-15T00:28:27;9.03;;;6.57;;
63444;SDS011;49573;47.682;9.170;2023-05-15T00:31:13;10.90;;;6.28;;
63444;SDS011;49573;47.682;9.170;2023-05-15T00:33:59;8.27;;;6.57;;
63444;SDS011;49573;47.682;9.170;2023-05-15T00:36:45;10.30;;;6.80;;
63444;SDS011;49573;47.682;9.170;2023-05-15T00:39:32;8.00;;;6.32;;
63444;SDS011;49573;47.682;9.170;2023-05-15T00:42:18;9.02;;;6.57;;
63444;SDS011;49573;47.682;9.170;2023-05-15T00:45:06;8.73;;;6.17;;
63444;SDS011;49573;47.682;9.170;2023-05-15T00:47:54;8.43;;;6.18;;
63444;SDS011;49573;47.682;9.170;2023-05-15T00:50:42;10.02;;;6.93;;
63444;SDS011;49573;47.682;9.170;2023-05-15T00:53:29;8.13;;;5.93;;
63444;SDS011;49573;47.682;9.170;2023-05-15T00:56:15;7.72;;;5.18;;
63444;SDS011;49573;47.682;9.170;2023-05-15T00:59:02;9.45;;;5.78;;
63444;SDS011;49573;47.682;9.170;2023-05-15T01:01:50;9.18;;;5.85;;
63444;SDS011;49573;47.682;9.170;2023-05-15T01:04:36;10.20;;;6.57;;
63444;SDS011;49573;47.682;9.170;2023-05-15T01:07:22;9.00;;;6.38;;
63444;SDS011;49573;47.682;9.170;2023-05-15T01:10:09;8.15;;;6.00;;
63444;SDS011;49573;47.682;9.170;2023-05-15T01:12:56;7.85;;;5.50;;
63444;SDS011;49573;47.682;9.170;2023-05-15T01:15:42;8.32;;;5.18;;
63444;SDS011;49573;47.682;9.170;2023-05-15T01:18:30;7.03;;;5.03;;
63444;SDS011;49573;47.682;9.170;2023-05-15T01:21:22;7.60;;;5.32;;
63444;SDS011;49573;47.682;9.170;2023-05-15T01:24:41;8.60;;;5.28;;
63444;SDS011;49573;47.682;9.170;2023-05-15T01:27:39;7.88;;;5.25;;
63444;SDS011;49573;47.682;9.170;2023-05-15T01:30:28;7.47;;;5.30;;
63444;SDS011;49573;47.682;9.170;2023-05-15T01:33:17;6.88;;;4.47;;
63444;SDS011;49573;47.682;9.170;2023-05-15T01:36:10;8.60;;;4.90;;
63444;SDS011;49573;47.682;9.170;2023-05-15T01:39:00;8.25;;;5.13;;
63444;SDS011;49573;47.682;9.170;2023-05-15T01:41:49;8.82;;;4.97;;
63444;SDS011;49573;47.682;9.170;2023-05-15T01:44:42;6.47;;;4.63;;
63444;SDS011;49573;47.682;9.170;2023-05-15T01:47:36;6.47;;;4.13;;
63444;SDS011;49573;47.682;9.170;2023-05-15T01:50:26;6.47;;;4.63;;
63444;SDS011;49573;47.682;9.170;2023-05-15T01:53:15;6.13;;;4.22;;
63444;SDS011;49573;47.682;9.170;2023-05-15T01:56:04;5.50;;;3.88;;
63444;SDS011;49573;47.682;9.170;2023-05-15T01:58:54;7.90;;;4.88;;
63444;SDS011;49573;47.682;9.170;2023-05-15T02:01:42;9.32;;;4.10;;
63444;SDS011;49573;47.682;9.170;2023-05-15T02:04:30;6.10;;;4.18;;
63444;SDS011;49573;47.682;9.170;2023-05-15T02:07:18;6.63;;;3.97;;
63444;SDS011;49573;47.682;9.170;2023-05-15T02:10:05;7.28;;;4.65;;
63444;SDS011;49573;47.682;9.170;2023-05-15T02:12:53;6.15;;;4.03;;
63444;SDS011;49573;47.682;9.170;2023-05-15T02:15:40;7.28;;;4.55;;
63444;SDS011;49573;47.682;9.170;2023-05-15T02:18:27;7.72;;;4.40;;
63444;SDS011;49573;47.682;9.170;2023-05-15T02:21:13;6.05;;;4.35;;
63444;SDS011;49573;47.682;9.170;2023-05-15T02:23:59;8.10;;;4.40;;
63444;SDS011;49573;47.682;9.170;2023-05-15T02:26:47;6.57;;;4.43;;
63444;SDS011;49573;47.682;9.170;2023-05-15T02:29:41;6.93;;;4.28;;
63444;SDS011;49573;47.682;9.170;2023-05-15T02:32:38;9.35;;;4.65;;
63444;SDS011;49573;47.682;9.170;2023-05-15T02:35:31;8.23;;;4.72;;
63444;SDS011;49573;47.682;9.170;2023-05-15T02:38:28;8.80;;;4.32;;
63444;SDS011;49573;47.682;9.170;2023-05-15T02:41:17;7.65;;;4.78;;
63444;SDS011;49573;47.682;9.170;2023-05-15T02:44:04;6.25;;;4.28;;
63444;SDS011;49573;47.682;9.170;2023-05-15T02:46:51;7.50;;;4.40;;
63444;SDS011;49573;47.682;9.170;2023-05-15T02:49:38;5.63;;;4.30;;
63444;SDS011;49573;47.682;9.170;2023-05-15T02:52:26;5.70;;;3.88;;
63444;SDS011;49573;47.682;9.170;2023-05-15T02:55:12;7.07;;;4.03;;
63444;SDS011;49573;47.682;9.170;2023-05-15T02:57:58;6.93;;;4.78;;
63444;SDS011;49573;47.682;9.170;2023-05-15T03:00:44;8.20;;;4.30;;
63444;SDS011;49573;47.682;9.170;2023-05-15T03:03:30;6.75;;;4.50;;
63444;SDS011;49573;47.682;9.170;2023-05-15T03:06:16;6.00;;;4.28;;
63444;SDS011;49573;47.682;9.170;2023-05-15T03:09:04;10.43;;;4.53;;
63444;SDS011;49573;47.682;9.170;2023-05-15T03:11:50;6.03;;;4.18;;
63444;SDS011;49573;47.682;9.170;2023-05-15T03:14:36;8.27;;;5.25;;
63444;SDS011;49573;47.682;9.170;2023-05-15T03:17:22;8.25;;;5.72;;
63444;SDS011;49573;47.682;9.170;2023-05-15T03:20:08;9.13;;;6.15;;
63444;SDS011;49573;47.682;9.170;2023-05-15T03:22:55;9.73;;;5.97;;
63444;SDS011;49573;47.682;9.170;2023-05-15T03:25:42;10.10;;;6.50;;
63444;SDS011;49573;47.682;9.170;2023-05-15T03:28:28;10.45;;;7.13;;
63444;SDS011;49573;47.682;9.170;2023-05-15T03:31:14;11.52;;;7.05;;
63444;SDS011;49573;47.682;9.170;2023-05-15T03:34:00;11.13;;;7.32;;
63444;SDS011;49573;47.682;9.170;2023-05-15T03:36:46;11.93;;;7.68;;
63444;SDS011;49573;47.682;9.170;2023-05-15T03:39:33;12.18;;;7.22;;
63444;SDS011;49573;47.682;9.170;2023-05-15T03:42:20;10.90;;;7.63;;
63444;SDS011;49573;47.682;9.170;2023-05-15T03:45:08;12.40;;;7.95;;
63444;SDS011;49573;47.682;9.170;2023-05-15T03:47:54;11.52;;;7.88;;
63444;SDS011;49573;47.682;9.170;2023-05-15T03:50:42;11.65;;;7.97;;
63444;SDS011;49573;47.682;9.170;2023-05-15T03:53:29;10.70;;;8.00;;
63444;SDS011;49573;47.682;9.170;2023-05-15T03:56:15;11.50;;;7.68;;
63444;SDS011;49573;47.682;9.170;2023-05-15T03:59:02;12.05;;;8.50;;
63444;SDS011;49573;47.682;9.170;2023-05-15T04:01:48;13.77;;;8.30;;
63444;SDS011;49573;47.682;9.170;2023-05-15T04:04:34;12.50;;;8.48;;
63444;SDS011;49573;47.682;9.170;2023-05-15T04:10:07;11.55;;;7.88;;
63444;SDS011;49573;47.682;9.170;2023-05-15T04:12:54;10.57;;;7.40;;
63444;SDS011;49573;47.682;9.170;2023-05-15T04:15:41;11.98;;;7.65;;
63444;SDS011;49573;47.682;9.170;2023-05-15T04:18:27;11.05;;;7.78;;
63444;SDS011;49573;47.682;9.170;2023-05-15T04:21:13;11.95;;;8.57;;
63444;SDS011;49573;47.682;9.170;2023-05-15T04:23:59;11.70;;;7.90;;
63444;SDS011;49573;47.682;9.170;2023-05-15T04:26:45;10.50;;;7.72;;
63444;SDS011;49573;47.682;9.170;2023-05-15T04:29:32;11.50;;;8.30;;
63444;SDS011;49573;47.682;9.170;2023-05-15T04:32:19;11.05;;;7.60;;
63444;SDS011;49573;47.682;9.170;2023-05-15T04:35:06;11.25;;;7.60;;
63444;SDS011;49573;47.682;9.170;2023-05-15T04:37:54;10.10;;;7.50;;
63444;SDS011;49573;47.682;9.170;2023-05-15T04:40:40;11.85;;;7.53;;
63444;SDS011;49573;47.682;9.170;2023-05-15T04:43:27;10.25;;;7.18;;
63444;SDS011;49573;47.682;9.170;2023-05-15T04:46:13;11.10;;;7.20;;
63444;SDS011;49573;47.682;9.170;2023-05-15T04:49:00;10.07;;;6.70;;
63444;SDS011;49573;47.682;9.170;2023-05-15T04:51:46;10.02;;;6.50;;
63444;SDS011;49573;47.682;9.170;2023-05-15T04:54:32;9.77;;;6.80;;
63444;SDS011;49573;47.682;9.170;2023-05-15T04:57:18;12.93;;;7.43;;
63444;SDS011;49573;47.682;9.170;2023-05-15T05:02:56;10.90;;;7.10;;
63444;SDS011;49573;47.682;9.170;2023-05-15T05:05:43;8.95;;;6.45;;
63444;SDS011;49573;47.682;9.170;2023-05-15T05:08:29;9.02;;;6.63;;
63444;SDS011;49573;47.682;9.170;2023-05-15T05:11:15;9.90;;;6.75;;
63444;SDS011;49573;47.682;9.170;2023-05-15T05:14:01;8.48;;;6.35;;
63444;SDS011;49573;47.682;9.170;2023-05-15T05:16:48;9.68;;;6.63;;
63444;SDS011;49573;47.682;9.170;2023-05-15T05:19:34;8.95;;;6.47;;
63444;SDS011;49573;47.682;9.170;2023-05-15T05:22:21;9.18;;;6.07;;
63444;SDS011;49573;47.682;9.170;2023-05-15T05:25:08;10.52;;;6.30;;
63444;SDS011;49573;47.682;9.170;2023-05-15T05:27:54;10.82;;;7.18;;
63444;SDS011;49573;47.682;9.170;2023-05-15T05:30:43;11.07;;;7.00;;
63444;SDS011;49573;47.682;9.170;2023-05-15T05:33:29;10.80;;;7.25;;
63444;SDS011;49573;47.682;9.170;2023-05-15T05:36:15;10.50;;;7.07;;
63444;SDS011;49573;47.682;9.170;2023-05-15T05:39:02;10.77;;;7.20;;
63444;SDS011;49573;47.682;9.170;2023-05-15T05:41:49;10.25;;;6.72;;
63444;SDS011;49573;47.682;9.170;2023-05-15T05:44:35;10.75;;;7.28;;
63444;SDS011;49573;47.682;9.170;2023-05-15T05:47:21;11.13;;;7.75;;
63444;SDS011;49573;47.682;9.170;2023-05-15T05:50:07;9.75;;;6.95;;
63444;SDS011;49573;47.682;9.170;2023-05-15T05:52:53;10.80;;;7.27;;
63444;SDS011;49573;47.682;9.170;2023-05-15T05:55:40;10.48;;;7.68;;
63444;SDS011;49573;47.682;9.170;2023-05-15T05:58:27;10.57;;;7.55;;
63444;SDS011;49573;47.682;9.170;2023-05-15T06:01:13;11.20;;;8.30;;
63444;SDS011;49573;47.682;9.170;2023-05-15T06:03:59;13.10;;;9.00;;
63444;SDS011;49573;47.682;9.170;2023-05-15T06:06:45;13.13;;;8.23;;
63444;SDS011;49573;47.682;9.170;2023-05-15T06:09:31;11.93;;;8.68;;
63444;SDS011;49573;47.682;9.170;2023-05-15T06:12:19;13.82;;;8.73;;
63444;SDS011;49573;47.682;9.170;2023-05-15T06:15:05;14.15;;;9.00;;
63444;SDS011;49573;47.682;9.170;2023-05-15T06:17:52;12.95;;;8.65;;
63444;SDS011;49573;47.682;9.170;2023-05-15T06:20:38;13.10;;;9.35;;
63444;SDS011;49573;47.682;9.170;2023-05-15T06:23:27;18.80;;;9.75;;
63444;SDS011;49573;47.682;9.170;2023-05-15T06:26:13;15.43;;;9.60;;
63444;SDS011;49573;47.682;9.170;2023-05-15T06:29:00;15.00;;;10.00;;
63444;SDS011;49573;47.682;9.170;2023-05-15T06:31:46;12.50;;;9.25;;
63444;SDS011;49573;47.682;9.170;2023-05-15T06:34:32;13.98;;;9.30;;
63444;SDS011;49573;47.682;9.170;2023-05-15T06:37:18;11.63;;;8.52;;
63444;SDS011;49573;47.682;9.170;2023-05-15T06:40:05;10.23;;;7.13;;
63444;SDS011;49573;47.682;9.170;2023-05-15T06:45:39;8.90;;;6.43;;
63444;SDS011;49573;47.682;9.170;2023-05-15T06:48:24;9.32;;;6.18;;
63444;SDS011;49573;47.682;9.170;2023-05-15T06:51:10;8.27;;;5.90;;
63444;SDS011;49573;47.682;9.170;2023-05-15T06:53:57;8.63;;;5.32;;
63444;SDS011;49573;47.682;9.170;2023-05-15T06:56:43;7.03;;;5.17;;
63444;SDS011;49573;47.682;9.170;2023-05-15T06:59:29;6.82;;;4.47;;
63444;SDS011;49573;47.682;9.170;2023-05-15T07:02:20;5.40;;;4.00;;
63444;SDS011;49573;47.682;9.170;2023-05-15T07:05:06;5.15;;;3.90;;
63444;SDS011;49573;47.682;9.170;2023-05-15T07:07:53;6.75;;;4.30;;
63444;SDS011;49573;47.682;9.170;2023-05-15T07:10:42;5.32;;;4.03;;
63444;SDS011;49573;47.682;9.170;2023-05-15T07:13:29;7.30;;;4.20;;
63444;SDS011;49573;47.682;9.170;2023-05-15T07:16:15;5.75;;;4.15;;
63444;SDS011;49573;47.682;9.170;2023-05-15T07:19:02;5.07;;;4.30;;
63444;SDS011;49573;47.682;9.170;2023-05-15T07:21:48;5.80;;;3.90;;
63444;SDS011;49573;47.682;9.170;2023-05-15T07:24:34;4.47;;;3.40;;
63444;SDS011;49573;47.682;9.170;2023-05-15T07:27:20;6.63;;;4.47;;
63444;SDS011;49573;47.682;9.170;2023-05-15T07:30:07;5.10;;;3.73;;
63444;SDS011;49573;47.682;9.170;2023-05-15T07:32:53;4.97;;;3.70;;
63444;SDS011;49573;47.682;9.170;2023-05-15T07:35:41;6.40;;;3.90;;
63444;SDS011;49573;47.682;9.170;2023-05-15T07:38:27;4.45;;;3.25;;
63444;SDS011;49573;47.682;9.170;2023-05-15T07:41:13;4.07;;;3.00;;
63444;SDS011;49573;47.682;9.170;2023-05-15T07:43:59;4.53;;;3.22;;
63444;SDS011;49573;47.682;9.170;2023-05-15T07:46:45;4.77;;;3.13;;
63444;SDS011;49573;47.682;9.170;2023-05-15T07:49:31;4.50;;;3.30;;
63444;SDS011;49573;47.682;9.170;2023-05-15T07:52:18;4.83;;;2.93;;
63444;SDS011;49573;47.682;9.170;2023-05-15T07:55:05;4.13;;;3.38;;
63444;SDS011;49573;47.682;9.170;2023-05-15T07:57:51;4.10;;;2.83;;
63444;SDS011;49573;47.682;9.170;2023-05-15T08:00:37;4.32;;;3.17;;
63444;SDS011;49573;47.682;9.170;2023-05-15T08:03:23;4.03;;;3.05;;
63444;SDS011;49573;47.682;9.170;2023-05-15T08:06:09;4.85;;;3.30;;
63444;SDS011;49573;47.682;9.170;2023-05-15T08:08:57;3.92;;;3.03;;
63444;SDS011;49573;47.682;9.170;2023-05-15T08:11:43;4.15;;;2.85;;
63444;SDS011;49573;47.682;9.170;2023-05-15T08:14:29;6.68;;;3.30;;
63444;SDS011;49573;47.682;9.170;2023-05-15T08:17:15;3.85;;;3.00;;
63444;SDS011;49573;47.682;9.170;2023-05-15T08:20:02;4.25;;;2.95;;
63444;SDS011;49573;47.682;9.170;2023-05-15T08:22:49;3.85;;;2.70;;
63444;SDS011;49573;47.682;9.170;2023-05-15T08:25:36;4.40;;;3.00;;
63444;SDS011;49573;47.682;9.170;2023-05-15T08:28:22;3.85;;;2.88;;
63444;SDS011;49573;47.682;9.170;2023-05-15T08:31:08;4.25;;;3.22;;
63444;SDS011;49573;47.682;9.170;2023-05-15T08:33:54;5.00;;;2.90;;
63444;SDS011;49573;47.682;9.170;2023-05-15T08:36:40;4.90;;;3.20;;
63444;SDS011;49573;47.682;9.170;2023-05-15T08:39:26;3.75;;;2.83;;
63444;SDS011;49573;47.682;9.170;2023-05-15T08:42:16;4.43;;;3.35;;
63444;SDS011;49573;47.682;9.170;2023-05-15T08:45:06;4.05;;;2.67;;
63444;SDS011;49573;47.682;9.170;2023-05-15T08:47:53;3.53;;;2.50;;
63444;SDS011;49573;47.682;9.170;2023-05-15T08:50:41;4.05;;;2.75;;
63444;SDS011;49573;47.682;9.170;2023-05-15T08:53:28;3.75;;;2.63;;
63444;SDS011;49573;47.682;9.170;2023-05-15T08:56:15;3.45;;;2.53;;
63444;SDS011;49573;47.682;9.170;2023-05-15T08:59:03;2.92;;;2.22;;
63444;SDS011;49573;47.682;9.170;2023-05-15T09:01:50;3.60;;;2.60;;
63444;SDS011;49573;47.682;9.170;2023-05-15T09:04:36;3.00;;;2.20;;
63444;SDS011;49573;47.682;9.170;2023-05-15T09:07:22;3.25;;;2.30;;
63444;SDS011;49573;47.682;9.170;2023-05-15T09:10:09;4.68;;;2.88;;
63444;SDS011;49573;47.682;9.170;2023-05-15T09:12:56;3.70;;;2.25;;
63444;SDS011;49573;47.682;9.170;2023-05-15T09:15:45;4.90;;;2.58;;
63444;SDS011;49573;47.682;9.170;2023-05-15T09:18:32;3.10;;;2.20;;
63444;SDS011;49573;47.682;9.170;2023-05-15T09:21:22;3.90;;;2.10;;
63444;SDS011;49573;47.682;9.170;2023-05-15T09:24:16;2.47;;;2.00;;
63444;SDS011;49573;47.682;9.170;2023-05-15T09:27:04;3.25;;;2.15;;
63444;SDS011;49573;47.682;9.170;2023-05-15T09:29:51;3.00;;;2.20;;
63444;SDS011;49573;47.682;9.170;2023-05-15T09:32:42;3.28;;;2.15;;
63444;SDS011;49573;47.682;9.170;2023-05-15T09:35:31;3.13;;;2.30;;
63444;SDS011;49573;47.682;9.170;2023-05-15T09:38:18;3.40;;;2.50;;
63444;SDS011;49573;47.682;9.170;2023-05-15T09:41:05;3.83;;;2.57;;
63444;SDS011;49573;47.682;9.170;2023-05-15T09:43:52;2.70;;;2.15;;
63444;SDS011;49573;47.682;9.170;2023-05-15T09:46:40;3.05;;;2.45;;
63444;SDS011;49573;47.682;9.170;2023-05-15T09:49:28;3.72;;;2.53;;
63444;SDS011;49573;47.682;9.170;2023-05-15T09:52:15;3.75;;;2.33;;
63444;SDS011;49573;47.682;9.170;2023-05-15T09:55:01;3.50;;;2.60;;
63444;SDS011;49573;47.682;9.170;2023-05-15T10:00:56;3.22;;;2.28;;
63444;SDS011;49573;47.682;9.170;2023-05-15T10:03:45;3.33;;;2.20;;
63444;SDS011;49573;47.682;9.170;2023-05-15T10:06:44;3.95;;;2.75;;
63444;SDS011;49573;47.682;9.170;2023-05-15T10:09:30;3.00;;;2.10;;
63444;SDS011;49573;47.682;9.170;2023-05-15T10:12:17;3.42;;;2.40;;
63444;SDS011;49573;47.682;9.170;2023-05-15T10:15:03;2.50;;;2.00;;
63444;SDS011;49573;47.682;9.170;2023-05-15T10:17:51;2.95;;;2.20;;
63444;SDS011;49573;47.682;9.170;2023-05-15T10:20:37;2.20;;;2.00;;
63444;SDS011;49573;47.682;9.170;2023-05-15T10:23:25;2.40;;;2.07;;
63444;SDS011;49573;47.682;9.170;2023-05-15T10:26:13;2.95;;;2.25;;
63444;SDS011;49573;47.682;9.170;2023-05-15T10:29:07;3.30;;;2.30;;
63444;SDS011;49573;47.682;9.170;2023-05-15T10:31:54;3.22;;;2.42;;
63444;SDS011;49573;47.682;9.170;2023-05-15T10:34:42;2.55;;;2.10;;
63444;SDS011;49573;47.682;9.170;2023-05-15T10:37:29;3.05;;;2.30;;
63444;SDS011;49573;47.682;9.170;2023-05-15T10:40:17;3.22;;;2.35;;
63444;SDS011;49573;47.682;9.170;2023-05-15T10:43:04;3.00;;;2.30;;
63444;SDS011;49573;47.682;9.170;2023-05-15T10:45:50;3.00;;;2.17;;
63444;SDS011;49573;47.682;9.170;2023-05-15T10:48:37;3.17;;;2.30;;
63444;SDS011;49573;47.682;9.170;2023-05-15T10:54:11;3.05;;;2.05;;
63444;SDS011;49573;47.682;9.170;2023-05-15T10:56:59;3.15;;;2.20;;
63444;SDS011;49573;47.682;9.170;2023-05-15T10:59:46;3.20;;;2.70;;
63444;SDS011;49573;47.682;9.170;2023-05-15T11:02:36;3.65;;;2.60;;
63444;SDS011;49573;47.682;9.170;2023-05-15T11:05:23;4.13;;;2.45;;
63444;SDS011;49573;47.682;9.170;2023-05-15T11:08:22;3.15;;;2.40;;
63444;SDS011;49573;47.682;9.170;2023-05-15T11:14:31;4.43;;;2.80;;
63444;SDS011;49573;47.682;9.170;2023-05-15T11:17:21;4.28;;;2.50;;
63444;SDS011;49573;47.682;9.170;2023-05-15T11:20:08;3.33;;;2.55;;
63444;SDS011;49573;47.682;9.170;2023-05-15T11:22:56;3.47;;;2.40;;
63444;SDS011;49573;47.682;9.170;2023-05-15T11:25:44;3.50;;;2.58;;
63444;SDS011;49573;47.682;9.170;2023-05-15T11:28:41;4.78;;;2.72;;
63444;SDS011;49573;47.682;9.170;2023-05-15T11:31:29;3.88;;;2.53;;
63444;SDS011;49573;47.682;9.170;2023-05-15T11:34:16;2.78;;;2.28;;
63444;SDS011;49573;47.682;9.170;2023-05-15T11:37:16;3.15;;;2.45;;
63444;SDS011;49573;47.682;9.170;2023-05-15T11:40:03;3.45;;;2.50;;
63444;SDS011;49573;47.682;9.170;2023-05-15T11:43:00;5.53;;;2.67;;
63444;SDS011;49573;47.682;9.170;2023-05-15T11:45:51;4.03;;;3.03;;
63444;SDS011;49573;47.682;9.170;2023-05-15T11:48:44;3.50;;;2.80;;
63444;SDS011;49573;47.682;9.170;2023-05-15T11:51:34;4.15;;;2.75;;
63444;SDS011;49573;47.682;9.170;2023-05-15T11:54:27;4.18;;;2.70;;
63444;SDS011;49573;47.682;9.170;2023-05-15T11:57:13;3.85;;;3.10;;
63444;SDS011;49573;47.682;9.170;2023-05-15T12:00:00;3.40;;;2.70;;
63444;SDS011;49573;47.682;9.170;2023-05-15T12:02:46;3.77;;;2.87;;
63444;SDS011;49573;47.682;9.170;2023-05-15T12:05:33;4.97;;;3.17;;
63444;SDS011;49573;47.682;9.170;2023-05-15T12:08:19;4.57;;;2.88;;
63444;SDS011;49573;47.682;9.170;2023-05-15T12:11:06;3.85;;;3.13;;
63444;SDS011;49573;47.682;9.170;2023-05-15T12:13:52;3.80;;;2.75;;
63444;SDS011;49573;47.682;9.170;2023-05-15T12:16:39;3.17;;;2.65;;
63444;SDS011;49573;47.682;9.170;2023-05-15T12:19:26;3.50;;;2.80;;
63444;SDS011;49573;47.682;9.170;2023-05-15T12:22:13;4.22;;;3.08;;
63444;SDS011;49573;47.682;9.170;2023-05-15T12:24:59;3.70;;;2.67;;
63444;SDS011;49573;47.682;9.170;2023-05-15T12:27:46;3.95;;;2.92;;
63444;SDS011;49573;47.682;9.170;2023-05-15T12:30:32;3.58;;;2.85;;
63444;SDS011;49573;47.682;9.170;2023-05-15T12:33:19;4.82;;;2.90;;
63444;SDS011;49573;47.682;9.170;2023-05-15T12:36:06;3.58;;;2.83;;
63444;SDS011;49573;47.682;9.170;2023-05-15T12:41:40;4.50;;;3.00;;
63444;SDS011;49573;47.682;9.170;2023-05-15T12:44:26;4.10;;;2.90;;
63444;SDS011;49573;47.682;9.170;2023-05-15T12:47:12;4.40;;;2.90;;
63444;SDS011;49573;47.682;9.170;2023-05-15T12:50:00;3.17;;;2.55;;
63444;SDS011;49573;47.682;9.170;2023-05-15T12:52:46;3.70;;;3.13;;
63444;SDS011;49573;47.682;9.170;2023-05-15T12:55:37;4.07;;;2.88;;
63444;SDS011;49573;47.682;9.170;2023-05-15T12:58:24;4.40;;;3.05;;
63444;SDS011;49573;47.682;9.170;2023-05-15T13:01:10;3.70;;;2.72;;
63444;SDS011;49573;47.682;9.170;2023-05-15T13:03:57;4.05;;;2.95;;
63444;SDS011;49573;47.682;9.170;2023-05-15T13:06:43;3.88;;;3.15;;
63444;SDS011;49573;47.682;9.170;2023-05-15T13:09:31;4.05;;;3.03;;
63444;SDS011;49573;47.682;9.170;2023-05-15T13:12:19;4.90;;;3.05;;
63444;SDS011;49573;47.682;9.170;2023-05-15T13:15:06;5.88;;;3.05;;
63444;SDS011;49573;47.682;9.170;2023-05-15T13:17:53;4.22;;;3.15;;
63444;SDS011;49573;47.682;9.170;2023-05-15T13:20:43;3.83;;;2.90;;
63444;SDS011;49573;47.682;9.170;2023-05-15T13:23:30;3.40;;;2.03;;
63444;SDS011;49573;47.682;9.170;2023-05-15T13:26:16;4.53;;;2.30;;
63444;SDS011;49573;47.682;9.170;2023-05-15T13:29:03;3.10;;;2.03;;
63444;SDS011;49573;47.682;9.170;2023-05-15T13:31:50;2.58;;;2.08;;
63444;SDS011;49573;47.682;9.170;2023-05-15T13:34:36;3.80;;;2.33;;
63444;SDS011;49573;47.682;9.170;2023-05-15T13:37:22;4.50;;;2.23;;
63444;SDS011;49573;47.682;9.170;2023-05-15T13:40:08;3.80;;;2.33;;
63444;SDS011;49573;47.682;9.170;2023-05-15T13:42:57;4.65;;;2.17;;
63444;SDS011;49573;47.682;9.170;2023-05-15T13:45:44;3.80;;;2.30;;
63444;SDS011;49573;47.682;9.170;2023-05-15T13:48:30;5.60;;;2.20;;
63444;SDS011;49573;47.682;9.170;2023-05-15T13:51:16;3.95;;;2.08;;
63444;SDS011;49573;47.682;9.170;2023-05-15T13:54:02;2.50;;;2.15;;
63444;SDS011;49573;47.682;9.170;2023-05-15T13:56:48;2.83;;;2.23;;
63444;SDS011;49573;47.682;9.170;2023-05-15T13:59:35;2.70;;;1.98;;
63444;SDS011;49573;47.682;9.170;2023-05-15T14:02:22;3.43;;;2.13;;
63444;SDS011;49573;47.682;9.170;2023-05-15T14:05:11;3.22;;;2.10;;
63444;SDS011;49573;47.682;9.170;2023-05-15T14:07:58;3.08;;;2.08;;
63444;SDS011;49573;47.682;9.170;2023-05-15T14:10:44;3.15;;;2.33;;
63444;SDS011;49573;47.682;9.170;2023-05-15T14:13:31;3.78;;;2.45;;
63444;SDS011;49573;47.682;9.170;2023-05-15T14:16:18;3.88;;;2.60;;
63444;SDS011;49573;47.682;9.170;2023-05-15T14:19:05;2.80;;;2.30;;
63444;SDS011;49573;47.682;9.170;2023-05-15T14:21:51;3.70;;;2.33;;
63444;SDS011;49573;47.682;9.170;2023-05-15T14:24:37;2.93;;;2.07;;
63444;SDS011;49573;47.682;9.170;2023-05-15T14:27:23;4.37;;;2.33;;
63444;SDS011;49573;47.682;9.170;2023-05-15T14:30:10;2.95;;;2.20;;
63444;SDS011;49573;47.682;9.170;2023-05-15T14:32:56;4.10;;;2.53;;
63444;SDS011;49573;47.682;9.170;2023-05-15T14:35:43;3.03;;;2.10;;
63444;SDS011;49573;47.682;9.170;2023-05-15T14:38:30;3.28;;;1.95;;
63444;SDS011;49573;47.682;9.170;2023-05-15T14:41:16;3.28;;;1.90;;
63444;SDS011;49573;47.682;9.170;2023-05-15T14:44:02;3.07;;;1.70;;
63444;SDS011;49573;47.682;9.170;2023-05-15T14:46:49;2.42;;;2.00;;
63444;SDS011;49573;47.682;9.170;2023-05-15T14:49:50;2.63;;;2.10;;
63444;SDS011;49573;47.682;9.170;2023-05-15T14:52:37;2.23;;;1.80;;
63444;SDS011;49573;47.682;9.170;2023-05-15T14:55:24;3.13;;;2.30;;
63444;SDS011;49573;47.682;9.170;2023-05-15T14:58:10;2.87;;;2.10;;
63444;SDS011;49573;47.682;9.170;2023-05-15T15:00:56;2.50;;;1.77;;
63444;SDS011;49573;47.682;9.170;2023-05-15T15:03:42;3.47;;;1.98;;
63444;SDS011;49573;47.682;9.170;2023-05-15T15:06:28;1.92;;;1.67;;
63444;SDS011;49573;47.682;9.170;2023-05-15T15:12:02;2.00;;;1.80;;
63444;SDS011;49573;47.682;9.170;2023-05-15T15:14:49;2.75;;;1.95;;
63444;SDS011;49573;47.682;9.170;2023-05-15T15:17:35;2.75;;;2.08;;
63444;SDS011;49573;47.682;9.170;2023-05-15T15:20:21;2.70;;;1.97;;
63444;SDS011;49573;47.682;9.170;2023-05-15T15:23:09;2.85;;;2.17;;
63444;SDS011;49573;47.682;9.170;2023-05-15T15:25:55;2.78;;;2.20;;
63444;SDS011;49573;47.682;9.170;2023-05-15T15:28:42;5.47;;;2.30;;
63444;SDS011;49573;47.682;9.170;2023-05-15T15:31:28;3.00;;;2.10;;
63444;SDS011;49573;47.682;9.170;2023-05-15T15:34:15;2.17;;;1.77;;
63444;SDS011;49573;47.682;9.170;2023-05-15T15:37:01;2.28;;;1.80;;
63444;SDS011;49573;47.682;9.170;2023-05-15T15:39:47;2.15;;;1.80;;
63444;SDS011;49573;47.682;9.170;2023-05-15T15:42:34;3.22;;;1.73;;
63444;SDS011;49573;47.682;9.170;2023-05-15T15:45:21;2.60;;;1.90;;
63444;SDS011;49573;47.682;9.170;2023-05-15T15:48:07;2.80;;;2.17;;
63444;SDS011;49573;47.682;9.170;2023-05-15T15:50:53;2.03;;;1.70;;
63444;SDS011;49573;47.682;9.170;2023-05-15T15:53:39;4.07;;;2.70;;
63444;SDS011;49573;47.682;9.170;2023-05-15T15:56:25;2.65;;;2.10;;
63444;SDS011;49573;47.682;9.170;2023-05-15T15:59:11;2.78;;;2.13;;
63444;SDS011;49573;47.682;9.170;2023-05-15T16:01:59;3.15;;;2.13;;
63444;SDS011;49573;47.682;9.170;2023-05-15T16:04:45;2.58;;;2.00;;
63444;SDS011;49573;47.682;9.170;2023-05-15T16:07:32;2.60;;;2.20;;
63444;SDS011;49573;47.682;9.170;2023-05-15T16:10:18;4.35;;;2.80;;
63444;SDS011;49573;47.682;9.170;2023-05-15T16:13:04;3.55;;;2.40;;
63444;SDS011;49573;47.682;9.170;2023-05-15T16:15:50;3.83;;;2.70;;
63444;SDS011;49573;47.682;9.170;2023-05-15T16:18:37;5.47;;;3.70;;
63444;SDS011;49573;47.682;9.170;2023-05-15T16:21:23;3.70;;;2.10;;
63444;SDS011;49573;47.682;9.170;2023-05-15T16:24:09;4.65;;;2.25;;
63444;SDS011;49573;47.682;9.170;2023-05-15T16:26:55;2.73;;;2.30;;
63444;SDS011;49573;47.682;9.170;2023-05-15T16:29:41;3.13;;;2.30;;
63444;SDS011;49573;47.682;9.170;2023-05-15T16:32:27;3.00;;;2.50;;
63444;SDS011;49573;47.682;9.170;2023-05-15T16:35:15;3.13;;;2.40;;
63444;SDS011;49573;47.682;9.170;2023-05-15T16:38:01;3.20;;;2.30;;
63444;SDS011;49573;47.682;9.170;2023-05-15T16:40:48;3.15;;;2.25;;
63444;SDS011;49573;47.682;9.170;2023-05-15T16:43:35;4.32;;;2.85;;
63444;SDS011;49573;47.682;9.170;2023-05-15T16:46:22;3.38;;;2.42;;
63444;SDS011;49573;47.682;9.170;2023-05-15T16:49:08;3.13;;;2.23;;
63444;SDS011;49573;47.682;9.170;2023-05-15T16:51:55;3.73;;;2.53;;
63444;SDS011;49573;47.682;9.170;2023-05-15T16:54:41;2.70;;;2.15;;
63444;SDS011;49573;47.682;9.170;2023-05-15T16:57:27;2.88;;;2.30;;
63444;SDS011;49573;47.682;9.170;2023-05-15T17:00:14;2.53;;;1.80;;
63444;SDS011;49573;47.682;9.170;2023-05-15T17:03:00;3.75;;;2.65;;
63444;SDS011;49573;47.682;9.170;2023-05-15T17:05:47;2.33;;;1.95;;
63444;SDS011;49573;47.682;9.170;2023-05-15T17:08:35;4.88;;;1.77;;